createdAt,value
2022-08-27T00:01:33.090Z,20.10
2022-08-27T00:04:00.926Z,20.03
2022-08-27T00:06:29.414Z,20.01
2022-08-27T00:08:57.157Z,20.13
2022-08-27T00:11:26.366Z,20.12
2022-08-27T00:13:54.606Z,20.23
2022-08-27T00:16:22.386Z,20.27
2022-08-27T00:18:52.383Z,20.47
2022-08-27T00:21:20.167Z,20.54
2022-08-27T00:23:48.245Z,20.40
2022-08-27T00:26:17.276Z,20.41
2022-08-27T00:28:45.725Z,20.35
2022-08-27T00:31:13.432Z,20.49
2022-08-27T00:33:41.514Z,20.42
2022-08-27T00:36:11.863Z,20.57
2022-08-27T00:38:41.617Z,20.56
2022-08-27T00:41:12.528Z,20.44
2022-08-27T00:43:50.715Z,20.62
2022-08-27T00:46:24.378Z,20.66
2022-08-27T00:48:55.412Z,20.47
2022-08-27T00:51:25.148Z,20.09
2022-08-27T00:53:55.267Z,19.80
2022-08-27T00:56:27.673Z,19.93
2022-08-27T00:58:57.753Z,19.85
2022-08-27T01:01:28.139Z,19.81
2022-08-27T01:04:00.267Z,19.85
2022-08-27T01:06:34.659Z,19.88
2022-08-27T01:09:09.647Z,19.89
2022-08-27T01:11:38.855Z,19.95
2022-08-27T01:14:07.627Z,19.93
2022-08-27T01:16:40.101Z,19.95
2022-08-27T01:19:13.063Z,19.97
2022-08-27T01:21:48.304Z,19.90
2022-08-27T01:24:32.202Z,20.05
2022-08-27T01:27:00.974Z,20.18
2022-08-27T01:29:29.666Z,20.23
2022-08-27T01:32:01.165Z,20.18
2022-08-27T01:34:29.649Z,20.02
2022-08-27T01:36:57.563Z,20.24
2022-08-27T01:39:27.229Z,20.31
2022-08-27T01:41:57.688Z,20.01
2022-08-27T01:44:25.596Z,19.99
2022-08-27T01:46:53.354Z,19.76
2022-08-27T01:49:21.684Z,19.70
2022-08-27T01:51:49.415Z,19.66
2022-08-27T01:54:17.425Z,19.40
2022-08-27T01:56:46.597Z,19.53
2022-08-27T01:59:14.893Z,19.57
2022-08-27T02:01:42.618Z,19.52
2022-08-27T02:04:11.095Z,19.67
2022-08-27T02:06:38.776Z,19.45
2022-08-27T02:09:07.126Z,19.24
2022-08-27T02:11:34.771Z,19.40
2022-08-27T02:14:15.463Z,19.40
2022-08-27T02:16:46.329Z,19.27
2022-08-27T02:19:21.000Z,19.06
2022-08-27T02:21:49.856Z,19.16
2022-08-27T02:24:18.046Z,19.09
2022-08-27T02:26:45.734Z,19.06
2022-08-27T02:29:14.817Z,19.04
2022-08-27T02:31:42.971Z,19.04
2022-08-27T02:34:11.414Z,19.15
2022-08-27T02:36:39.137Z,19.09
2022-08-27T02:39:08.232Z,19.10
2022-08-27T02:41:36.432Z,19.11
2022-08-27T02:44:05.034Z,19.11
2022-08-27T02:46:39.952Z,19.01
2022-08-27T02:49:09.810Z,18.95
2022-08-27T02:51:37.805Z,18.88
2022-08-27T02:54:08.545Z,18.92
2022-08-27T02:56:37.606Z,18.96
2022-08-27T02:59:06.437Z,18.94
2022-08-27T03:01:34.201Z,19.00
2022-08-27T03:04:04.341Z,19.09
2022-08-27T03:06:32.069Z,19.33
2022-08-27T03:09:00.180Z,19.47
2022-08-27T03:11:27.880Z,19.44
2022-08-27T03:13:55.684Z,19.50
2022-08-27T03:16:23.482Z,19.62
2022-08-27T03:18:51.883Z,19.52
2022-08-27T03:21:24.321Z,19.26
2022-08-27T03:23:53.182Z,19.23
2022-08-27T03:26:21.534Z,19.11
2022-08-27T03:28:49.280Z,19.06
2022-08-27T03:31:27.334Z,18.99
2022-08-27T03:33:57.279Z,19.03
2022-08-27T03:36:27.839Z,19.10
2022-08-27T03:38:55.566Z,19.01
2022-08-27T03:41:43.793Z,19.01
2022-08-27T03:44:18.170Z,19.00
2022-08-27T03:46:50.179Z,19.02
2022-08-27T03:49:20.742Z,18.92
2022-08-27T03:51:51.735Z,18.85
2022-08-27T03:54:19.670Z,18.85
2022-08-27T03:56:47.500Z,18.87
2022-08-27T03:59:16.426Z,18.99
2022-08-27T04:01:44.258Z,19.02
2022-08-27T04:04:12.982Z,19.03
2022-08-27T04:06:41.524Z,19.09
2022-08-27T04:09:10.551Z,19.13
2022-08-27T04:11:38.243Z,19.20
2022-08-27T04:14:17.407Z,19.04
2022-08-27T04:16:54.892Z,19.16
2022-08-27T04:19:26.937Z,19.31
2022-08-27T04:22:00.154Z,19.39
2022-08-27T04:24:29.679Z,19.25
2022-08-27T04:26:57.543Z,19.32
2022-08-27T04:29:25.187Z,19.19
2022-08-27T04:31:53.163Z,19.19
2022-08-27T04:34:20.849Z,19.24
2022-08-27T04:36:50.525Z,19.09
2022-08-27T04:39:20.525Z,19.21
2022-08-27T04:41:51.539Z,19.21
2022-08-27T04:44:19.259Z,19.17
2022-08-27T04:46:49.420Z,19.19
2022-08-27T04:49:18.427Z,19.27
2022-08-27T04:51:48.243Z,19.40
2022-08-27T04:54:16.795Z,19.42
2022-08-27T04:56:44.627Z,19.38
2022-08-27T04:59:13.833Z,19.32
2022-08-27T05:01:43.095Z,19.35
2022-08-27T05:04:12.908Z,19.35
2022-08-27T05:06:41.331Z,19.42
2022-08-27T05:09:10.138Z,19.54
2022-08-27T05:11:39.298Z,19.61
2022-08-27T05:14:09.633Z,19.64
2022-08-27T05:16:39.872Z,19.69
2022-08-27T05:19:11.062Z,19.72
2022-08-27T05:21:40.451Z,19.72
2022-08-27T05:24:08.886Z,19.75
2022-08-27T05:26:38.174Z,19.80
2022-08-27T05:29:06.394Z,19.84
2022-08-27T05:31:35.684Z,19.86
2022-08-27T05:34:10.069Z,19.83
2022-08-27T05:36:47.909Z,19.88
2022-08-27T05:39:17.597Z,19.88
2022-08-27T05:41:45.993Z,19.87
2022-08-27T05:47:04.255Z,19.80
2022-08-27T05:49:33.333Z,19.71
2022-08-27T05:52:01.688Z,19.76
2022-08-27T05:54:29.335Z,19.82
2022-08-27T05:56:57.829Z,19.81
2022-08-27T05:59:43.342Z,19.79
2022-08-27T06:02:11.689Z,19.78
2022-08-27T06:04:40.804Z,19.71
2022-08-27T06:07:10.008Z,19.64
2022-08-27T06:09:39.079Z,19.69
2022-08-27T06:12:08.366Z,19.62
2022-08-27T06:14:36.783Z,19.71
2022-08-27T06:17:06.620Z,19.76
2022-08-27T06:19:34.714Z,19.87
2022-08-27T06:22:10.389Z,19.78
2022-08-27T06:24:40.049Z,19.79
2022-08-27T06:27:08.191Z,19.73
2022-08-27T06:29:35.814Z,19.83
2022-08-27T06:32:04.056Z,19.90
2022-08-27T06:34:31.862Z,19.91
2022-08-27T06:37:00.471Z,19.99
2022-08-27T06:39:30.923Z,20.04
2022-08-27T06:41:58.994Z,20.07
2022-08-27T06:44:28.097Z,20.11
2022-08-27T06:46:57.015Z,20.13
2022-08-27T06:49:24.888Z,20.13
2022-08-27T06:51:52.874Z,20.13
2022-08-27T06:54:20.509Z,20.16
2022-08-27T06:56:50.601Z,20.20
2022-08-27T06:59:21.227Z,20.11
2022-08-27T07:01:51.686Z,20.14
2022-08-27T07:04:22.618Z,20.20
2022-08-27T07:06:59.050Z,20.34
2022-08-27T07:09:26.941Z,20.31
2022-08-27T07:11:57.678Z,20.36
2022-08-27T07:14:25.543Z,20.34
2022-08-27T07:16:53.530Z,20.49
2022-08-27T07:19:21.175Z,20.55
2022-08-27T07:21:50.922Z,20.64
2022-08-27T07:24:19.507Z,20.67
2022-08-27T07:26:47.178Z,20.67
2022-08-27T07:29:17.006Z,20.64
2022-08-27T07:31:45.096Z,20.73
2022-08-27T07:34:12.763Z,20.97
2022-08-27T07:36:41.545Z,21.07
2022-08-27T07:39:09.484Z,20.84
2022-08-27T07:41:59.239Z,20.95
2022-08-27T07:44:33.076Z,21.14
2022-08-27T07:47:02.922Z,20.93
2022-08-27T07:49:31.776Z,21.02
2022-08-27T07:51:59.650Z,21.09
2022-08-27T07:54:27.309Z,21.01
2022-08-27T07:56:56.253Z,20.76
2022-08-27T07:59:24.616Z,20.75
2022-08-27T08:01:54.716Z,20.72
2022-08-27T08:04:22.810Z,20.78
2022-08-27T08:06:51.513Z,20.88
2022-08-27T08:09:20.206Z,20.84
2022-08-27T08:11:47.917Z,20.70
2022-08-27T08:14:16.039Z,20.73
2022-08-27T08:16:43.808Z,20.58
2022-08-27T08:19:13.103Z,20.58
2022-08-27T08:21:40.895Z,20.69
2022-08-27T08:24:08.759Z,20.77
2022-08-27T08:26:36.816Z,20.78
2022-08-27T08:29:05.413Z,20.79
2022-08-27T08:31:33.720Z,20.58
2022-08-27T08:34:01.406Z,20.51
2022-08-27T08:36:30.787Z,20.73
2022-08-27T08:38:59.593Z,20.73
2022-08-27T08:41:41.746Z,20.73
2022-08-27T08:44:17.811Z,20.93
2022-08-27T08:46:50.323Z,20.94
2022-08-27T08:49:32.421Z,21.37
2022-08-27T08:52:26.148Z,21.52
2022-08-27T08:55:09.002Z,21.62
2022-08-27T08:57:42.113Z,21.55
2022-08-27T09:00:13.335Z,21.64
2022-08-27T09:02:43.799Z,21.78
2022-08-27T09:05:11.584Z,21.75
2022-08-27T09:07:49.077Z,22.09
2022-08-27T09:10:27.447Z,22.27
2022-08-27T09:13:00.835Z,22.22
2022-08-27T09:16:02.031Z,22.48
2022-08-27T09:18:31.350Z,22.30
2022-08-27T09:21:09.014Z,22.58
2022-08-27T09:23:46.074Z,22.62
2022-08-27T09:26:22.182Z,22.92
2022-08-27T09:29:07.586Z,22.24
2022-08-27T09:31:41.005Z,22.57
2022-08-27T09:34:09.430Z,22.83
2022-08-27T09:36:49.959Z,23.09
2022-08-27T09:39:19.603Z,23.10
2022-08-27T09:41:49.441Z,23.30
2022-08-27T09:44:20.915Z,22.87
2022-08-27T09:47:00.237Z,23.36
2022-08-27T09:49:28.013Z,23.61
2022-08-27T09:51:56.955Z,23.34
2022-08-27T09:54:33.309Z,23.06
2022-08-27T09:57:01.321Z,23.59
2022-08-27T09:59:36.842Z,24.11
2022-08-27T10:02:13.559Z,24.49
2022-08-27T10:04:51.215Z,24.88
2022-08-27T10:07:38.157Z,25.36
2022-08-27T10:10:14.335Z,25.84
2022-08-27T10:12:52.608Z,26.25
2022-08-27T10:15:21.091Z,26.19
2022-08-27T10:18:01.594Z,26.31
2022-08-27T10:20:36.507Z,25.90
2022-08-27T10:23:26.450Z,25.85
2022-08-27T10:26:08.008Z,25.59
2022-08-27T10:28:50.266Z,25.35
2022-08-27T10:31:26.695Z,25.36
2022-08-27T10:34:08.872Z,25.56
2022-08-27T10:36:48.071Z,26.02
2022-08-27T10:39:23.659Z,26.56
2022-08-27T10:42:09.754Z,26.63
2022-08-27T10:44:52.589Z,26.70
2022-08-27T10:47:31.628Z,26.93
2022-08-27T10:50:06.440Z,27.72
2022-08-27T10:52:41.925Z,28.04
2022-08-27T10:55:16.539Z,27.95
2022-08-27T10:58:02.241Z,28.54
2022-08-27T11:00:41.429Z,28.98
2022-08-27T11:03:13.864Z,29.21
2022-08-27T11:05:45.261Z,28.79
2022-08-27T11:08:18.901Z,28.33
2022-08-27T11:10:50.109Z,28.59
2022-08-27T11:13:27.001Z,29.00
2022-08-27T11:15:57.276Z,29.52
2022-08-27T11:18:39.279Z,28.97
2022-08-27T11:21:14.925Z,28.68
2022-08-27T11:23:46.719Z,28.19
2022-08-27T11:26:14.542Z,28.23
2022-08-27T11:28:47.273Z,28.49
2022-08-27T11:31:21.077Z,28.49
2022-08-27T11:33:59.563Z,28.78
2022-08-27T11:36:45.729Z,28.76
2022-08-27T11:39:34.470Z,28.75
2022-08-27T11:42:08.748Z,28.42
2022-08-27T11:44:44.338Z,28.13
2022-08-27T11:47:15.349Z,28.64
2022-08-27T11:49:47.555Z,28.99
2022-08-27T11:52:24.989Z,29.26
2022-08-27T11:54:57.388Z,29.40
2022-08-27T11:57:31.602Z,29.42
2022-08-27T12:00:14.879Z,29.25
2022-08-27T12:02:43.814Z,29.05
2022-08-27T12:05:26.446Z,28.85
2022-08-27T12:07:54.635Z,28.55
2022-08-27T12:10:33.894Z,28.32
2022-08-27T12:13:17.414Z,28.30
2022-08-27T12:15:56.215Z,28.13
2022-08-27T12:18:42.295Z,28.00
2022-08-27T12:21:21.763Z,27.98
2022-08-27T12:24:08.488Z,27.90
2022-08-27T12:26:39.689Z,27.86
2022-08-27T12:29:31.297Z,27.76
2022-08-27T12:32:11.502Z,27.42
2022-08-27T12:34:45.593Z,27.18
2022-08-27T12:37:14.194Z,26.98
2022-08-27T12:39:49.678Z,26.60
2022-08-27T12:42:21.393Z,26.22
2022-08-27T12:44:55.843Z,26.22
2022-08-27T12:47:25.445Z,25.68
2022-08-27T12:49:57.756Z,25.18
2022-08-27T12:52:44.335Z,24.60
2022-08-27T12:55:23.888Z,24.04
2022-08-27T12:57:59.462Z,23.94
2022-08-27T13:00:36.089Z,23.60
2022-08-27T13:03:26.586Z,23.16
2022-08-27T13:05:57.401Z,22.98
2022-08-27T13:08:28.845Z,23.04
2022-08-27T13:10:57.768Z,23.03
2022-08-27T13:13:26.965Z,23.15
2022-08-27T13:15:56.915Z,23.33
2022-08-27T13:18:29.423Z,23.48
2022-08-27T13:21:03.848Z,23.61
2022-08-27T13:23:32.294Z,23.74
2022-08-27T13:26:12.503Z,23.86
2022-08-27T13:28:43.057Z,23.91
2022-08-27T13:31:12.370Z,23.97
2022-08-27T13:33:43.030Z,23.96
2022-08-27T13:36:11.831Z,24.08
2022-08-27T13:38:43.032Z,24.18
2022-08-27T13:41:22.510Z,24.31
2022-08-27T13:43:50.855Z,24.42
2022-08-27T13:46:22.145Z,24.45
2022-08-27T13:48:55.294Z,24.57
2022-08-27T13:51:28.895Z,24.67
2022-08-27T13:54:15.759Z,24.68
2022-08-27T13:56:58.806Z,24.36
2022-08-27T13:59:30.412Z,24.44
2022-08-27T14:02:01.271Z,24.53
2022-08-27T14:04:38.187Z,24.47
2022-08-27T14:07:12.827Z,24.58
2022-08-27T14:09:51.322Z,24.43
2022-08-27T14:12:32.919Z,24.38
2022-08-27T14:15:16.533Z,24.37
2022-08-27T14:17:46.330Z,24.53
2022-08-27T14:20:16.885Z,24.80
2022-08-27T14:22:45.283Z,25.11
2022-08-27T14:25:13.701Z,25.64
2022-08-27T14:27:45.065Z,26.04
2022-08-27T14:30:29.672Z,26.19
2022-08-27T14:32:59.430Z,26.10
2022-08-27T14:35:29.655Z,26.05
2022-08-27T14:37:58.869Z,25.79
2022-08-27T14:40:26.948Z,26.20
2022-08-27T14:42:54.662Z,25.71
2022-08-27T14:45:23.230Z,25.39
2022-08-27T14:47:51.755Z,25.63
2022-08-27T14:50:19.535Z,25.73
2022-08-27T14:52:48.853Z,25.71
2022-08-27T14:55:16.643Z,25.69
2022-08-27T14:57:44.309Z,25.28
2022-08-27T15:00:12.961Z,25.24
2022-08-27T15:02:48.007Z,25.03
2022-08-27T15:05:17.724Z,25.02
2022-08-27T15:07:47.222Z,25.09
2022-08-27T15:10:18.804Z,24.67
2022-08-27T15:12:46.649Z,24.17
2022-08-27T15:15:15.340Z,24.21
2022-08-27T15:17:43.310Z,24.32
2022-08-27T15:20:20.184Z,24.21
2022-08-27T15:22:49.647Z,24.63
2022-08-27T15:25:20.294Z,25.15
2022-08-27T15:27:47.937Z,25.89
2022-08-27T15:30:17.906Z,26.54
2022-08-27T15:32:48.075Z,27.19
2022-08-27T15:35:18.331Z,26.99
2022-08-27T15:37:46.922Z,27.44
2022-08-27T15:40:17.800Z,27.65
2022-08-27T15:42:57.040Z,27.89
2022-08-27T15:45:27.434Z,28.06
2022-08-27T15:47:55.938Z,28.15
2022-08-27T15:50:24.654Z,28.09
2022-08-27T15:52:58.651Z,27.91
2022-08-27T15:55:30.724Z,27.85
2022-08-27T15:58:00.019Z,27.68
2022-08-27T16:00:29.453Z,27.24
2022-08-27T16:02:57.727Z,26.89
2022-08-27T16:05:29.710Z,26.38
2022-08-27T16:07:57.401Z,26.36
2022-08-27T16:10:25.678Z,26.34
2022-08-27T16:12:53.363Z,26.12
2022-08-27T16:15:22.897Z,25.97
2022-08-27T16:17:53.852Z,25.87
2022-08-27T16:20:24.718Z,25.77
2022-08-27T16:22:53.013Z,25.63
2022-08-27T16:25:23.263Z,25.44
2022-08-27T16:27:51.288Z,25.43
2022-08-27T16:30:20.021Z,25.14
2022-08-27T16:32:52.162Z,25.00
2022-08-27T16:35:20.530Z,24.57
2022-08-27T16:37:48.723Z,24.25
2022-08-27T16:40:16.949Z,24.01
2022-08-27T16:42:47.086Z,24.23
2022-08-27T16:45:16.232Z,24.37
2022-08-27T16:48:02.131Z,24.42
2022-08-27T16:50:37.102Z,24.54
2022-08-27T16:53:08.403Z,24.45
2022-08-27T16:55:37.848Z,24.41
2022-08-27T16:58:07.107Z,24.17
2022-08-27T17:00:38.008Z,24.09
2022-08-27T17:03:06.298Z,23.83
2022-08-27T17:05:35.635Z,23.52
2022-08-27T17:08:05.422Z,23.28
2022-08-27T17:10:36.846Z,22.96
2022-08-27T17:13:04.680Z,22.91
2022-08-27T17:15:32.887Z,22.85
2022-08-27T17:18:00.592Z,22.93
2022-08-27T17:20:30.928Z,22.78
2022-08-27T17:23:01.151Z,22.63
2022-08-27T17:25:30.209Z,22.66
2022-08-27T17:28:00.401Z,22.51
2022-08-27T17:30:29.000Z,22.49
2022-08-27T17:32:57.511Z,22.53
2022-08-27T17:35:25.853Z,22.43
2022-08-27T17:37:54.562Z,22.31
2022-08-27T17:40:24.136Z,22.19
2022-08-27T17:42:52.514Z,22.32
2022-08-27T17:45:20.799Z,22.34
2022-08-27T17:47:49.196Z,22.24
2022-08-27T17:50:16.855Z,22.10
2022-08-27T17:52:45.354Z,21.97
2022-08-27T17:55:13.215Z,22.01
2022-08-27T17:57:42.791Z,22.02
2022-08-27T18:00:13.214Z,22.06
2022-08-27T18:02:46.427Z,22.04
2022-08-27T18:05:15.736Z,22.14
2022-08-27T18:07:44.286Z,22.13
2022-08-27T18:10:15.617Z,22.04
2022-08-27T18:12:45.414Z,22.01
2022-08-27T18:15:19.016Z,21.97
2022-08-27T18:17:49.052Z,21.91
2022-08-27T18:20:22.150Z,21.90
2022-08-27T18:22:50.651Z,21.82
2022-08-27T18:25:19.847Z,21.62
2022-08-27T18:27:51.556Z,21.49
2022-08-27T18:30:19.471Z,21.39
2022-08-27T18:32:47.836Z,21.54
2022-08-27T18:35:19.719Z,21.49
2022-08-27T18:37:48.331Z,21.44
2022-08-27T18:40:18.296Z,21.33
2022-08-27T18:42:46.873Z,21.09
2022-08-27T18:45:18.783Z,21.04
2022-08-27T18:47:47.007Z,20.94
2022-08-27T18:50:20.243Z,20.88
2022-08-27T18:52:50.585Z,21.02
2022-08-27T18:55:21.569Z,20.90
2022-08-27T18:57:50.032Z,21.00
2022-08-27T19:00:20.520Z,20.89
2022-08-27T19:02:52.523Z,20.94
2022-08-27T19:05:24.259Z,20.92
2022-08-27T19:07:51.946Z,20.91
2022-08-27T19:10:20.011Z,20.85
2022-08-27T19:12:48.708Z,20.84
2022-08-27T19:15:16.993Z,20.91
2022-08-27T19:17:50.845Z,20.73
2022-08-27T19:20:19.819Z,20.75
2022-08-27T19:22:48.552Z,20.69
2022-08-27T19:25:17.570Z,20.67
2022-08-27T19:27:46.683Z,20.73
2022-08-27T19:30:16.189Z,20.68
2022-08-27T19:32:44.497Z,20.83
2022-08-27T19:35:15.171Z,20.86
2022-08-27T19:37:46.378Z,20.96
2022-08-27T19:40:21.817Z,21.06
2022-08-27T19:42:50.772Z,21.13
2022-08-27T19:45:23.328Z,21.19
2022-08-27T19:47:52.984Z,21.26
2022-08-27T19:50:23.906Z,21.22
2022-08-27T19:52:53.697Z,21.18
2022-08-27T19:55:22.064Z,21.14
2022-08-27T19:57:50.022Z,21.07
2022-08-27T20:00:21.778Z,21.02
2022-08-27T20:02:50.814Z,20.96
2022-08-27T20:05:20.025Z,20.94
2022-08-27T20:07:51.609Z,20.89
2022-08-27T20:10:21.653Z,20.89
2022-08-27T20:12:50.540Z,20.89
2022-08-27T20:15:19.497Z,20.89
2022-08-27T20:17:49.052Z,20.87
2022-08-27T20:20:22.206Z,20.86
2022-08-27T20:22:52.190Z,20.82
2022-08-27T20:25:20.496Z,20.78
2022-08-27T20:27:48.232Z,20.78
2022-08-27T20:30:17.134Z,20.78
2022-08-27T20:32:46.766Z,20.83
2022-08-27T20:35:15.877Z,20.87
2022-08-27T20:37:44.039Z,20.89
2022-08-27T20:40:16.743Z,20.90
2022-08-27T20:42:45.334Z,20.90
2022-08-27T20:45:13.841Z,20.91
2022-08-27T20:47:42.451Z,20.92
2022-08-27T20:50:13.278Z,20.86
2022-08-27T20:52:41.380Z,20.85
2022-08-27T20:55:12.145Z,20.53
2022-08-27T20:58:07.160Z,20.58
2022-08-27T21:00:35.540Z,20.61
2022-08-27T21:03:03.311Z,20.63
2022-08-27T21:05:35.191Z,20.69
2022-08-27T21:08:03.404Z,20.76
2022-08-27T21:10:32.389Z,20.79
2022-08-27T21:13:04.705Z,20.81
2022-08-27T21:15:34.026Z,20.74
2022-08-27T21:18:01.738Z,20.74
2022-08-27T21:20:32.187Z,20.78
2022-08-27T21:23:00.321Z,20.79
2022-08-27T21:25:29.377Z,20.82
2022-08-27T21:27:57.917Z,20.77
2022-08-27T21:30:28.126Z,20.64
2022-08-27T21:32:56.027Z,20.48
2022-08-27T21:35:26.456Z,20.32
2022-08-27T21:37:54.208Z,20.16
2022-08-27T21:40:23.015Z,20.02
2022-08-27T21:42:50.797Z,19.88
2022-08-27T21:45:20.027Z,19.84
2022-08-27T21:47:50.985Z,19.80
2022-08-27T21:50:19.390Z,19.71
2022-08-27T21:52:47.094Z,19.75
2022-08-27T21:55:15.383Z,19.75
2022-08-27T21:57:43.173Z,19.72
2022-08-27T22:00:36.584Z,19.65
2022-08-27T22:03:10.484Z,19.67
2022-08-27T22:05:39.771Z,19.65
2022-08-27T22:08:09.198Z,19.65
2022-08-27T22:10:37.478Z,19.66
2022-08-27T22:13:05.367Z,19.69
2022-08-27T22:15:34.514Z,19.75
2022-08-27T22:18:02.650Z,19.78
2022-08-27T22:20:32.467Z,19.78
2022-08-27T22:23:00.689Z,19.76
2022-08-27T22:25:29.856Z,19.74
2022-08-27T22:27:57.540Z,19.72
2022-08-27T22:30:25.756Z,19.73
2022-08-27T22:32:53.843Z,19.70
2022-08-27T22:35:22.488Z,19.71
2022-08-27T22:37:51.774Z,19.68
2022-08-27T22:40:22.420Z,19.68
2022-08-27T22:42:51.099Z,19.67
2022-08-27T22:45:19.826Z,19.74
2022-08-27T22:47:48.007Z,19.74
2022-08-27T22:50:17.172Z,19.71
2022-08-27T22:52:45.767Z,19.71
2022-08-27T22:55:19.245Z,19.71
2022-08-27T22:57:47.397Z,19.64
2022-08-27T23:00:19.952Z,19.55
2022-08-27T23:02:47.831Z,19.64
2022-08-27T23:05:16.627Z,19.64
2022-08-27T23:07:45.342Z,19.60
2022-08-27T23:10:18.544Z,19.59
2022-08-27T23:12:46.524Z,19.57
2022-08-27T23:15:16.224Z,19.57
2022-08-27T23:17:44.654Z,19.53
2022-08-27T23:20:13.312Z,19.52
2022-08-27T23:22:42.643Z,19.52
2022-08-27T23:25:29.634Z,19.52
2022-08-27T23:27:59.851Z,19.57
2022-08-27T23:30:28.267Z,19.62
2022-08-27T23:32:56.841Z,19.65
2022-08-27T23:35:26.225Z,19.66
2022-08-27T23:37:54.470Z,19.69
2022-08-27T23:40:23.361Z,19.66
2022-08-27T23:42:51.520Z,19.64
2022-08-27T23:45:23.375Z,19.58
2022-08-27T23:47:51.895Z,19.58
2022-08-27T23:50:20.493Z,19.60
2022-08-27T23:52:51.956Z,19.62
2022-08-27T23:55:21.672Z,19.65
2022-08-27T23:57:52.037Z,19.65
